createdAt,value
2022-08-02T00:04:17.881Z,55.66
2022-08-02T00:10:22.798Z,56.04
2022-08-02T00:16:37.618Z,56.44
2022-08-02T00:22:41.462Z,56.44
2022-08-02T00:28:46.334Z,56.55
2022-08-02T00:34:50.153Z,56.35
2022-08-02T00:40:58.063Z,56.80
2022-08-02T00:47:03.350Z,56.26
2022-08-02T00:53:09.217Z,55.91
2022-08-02T00:59:12.684Z,55.53
2022-08-02T01:05:20.654Z,56.41
2022-08-02T01:11:24.189Z,56.26
2022-08-02T01:17:36.215Z,55.83
2022-08-02T01:23:58.434Z,56.06
2022-08-02T01:30:05.237Z,55.95
2022-08-02T01:36:13.094Z,55.98
2022-08-02T01:42:19.470Z,55.48
2022-08-02T01:48:27.754Z,55.75
2022-08-02T01:54:34.119Z,55.42
2022-08-02T02:00:41.540Z,55.87
2022-08-02T02:06:47.779Z,55.53
2022-08-02T02:12:52.601Z,55.79
2022-08-02T02:18:56.476Z,55.89
2022-08-02T02:25:01.575Z,56.39
2022-08-02T02:31:13.984Z,56.10
2022-08-02T02:37:22.076Z,55.95
2022-08-02T02:43:30.174Z,56.77
2022-08-02T02:49:36.116Z,57.27
2022-08-02T02:55:40.529Z,57.13
2022-08-02T03:02:07.320Z,57.12
2022-08-02T03:08:11.011Z,56.93
2022-08-02T03:14:15.537Z,57.16
2022-08-02T03:20:22.829Z,57.03
2022-08-02T03:26:26.494Z,57.05
2022-08-02T03:32:30.263Z,57.18
2022-08-02T03:38:36.944Z,56.86
2022-08-02T03:44:41.395Z,57.24
2022-08-02T03:50:48.151Z,57.69
2022-08-02T03:56:53.780Z,57.17
2022-08-02T04:02:57.447Z,57.38
2022-08-02T04:09:01.106Z,56.91
2022-08-02T04:15:08.281Z,57.93
2022-08-02T04:21:16.168Z,57.05
2022-08-02T04:27:50.516Z,57.41
2022-08-02T04:33:47.849Z,58.24
2022-08-02T04:39:51.566Z,58.76
2022-08-02T04:45:56.438Z,58.54
2022-08-02T04:52:01.698Z,59.21
2022-08-02T04:58:23.740Z,59.17
2022-08-02T05:04:28.913Z,58.90
2022-08-02T05:10:33.822Z,59.40
2022-08-02T05:16:37.402Z,59.59
2022-08-02T05:22:41.109Z,60.08
2022-08-02T05:28:46.064Z,60.20
2022-08-02T05:34:49.588Z,59.82
2022-08-02T05:40:54.713Z,60.17
2022-08-02T05:47:00.142Z,60.47
2022-08-02T05:53:06.902Z,61.00
2022-08-02T05:59:19.086Z,61.01
2022-08-02T06:05:26.938Z,61.35
2022-08-02T06:11:37.792Z,61.03
2022-08-02T06:17:45.658Z,60.12
2022-08-02T06:23:58.576Z,60.08
2022-08-02T06:30:03.661Z,60.68
2022-08-02T06:36:11.261Z,60.31
2022-08-02T06:42:27.160Z,57.37
2022-08-02T06:48:32.009Z,57.24
2022-08-02T06:54:36.242Z,56.94
2022-08-02T07:00:40.914Z,56.07
2022-08-02T07:06:44.900Z,54.25
2022-08-02T07:12:48.454Z,52.93
2022-08-02T07:18:53.371Z,54.13
2022-08-02T07:24:58.567Z,53.17
2022-08-02T07:31:02.366Z,51.96
2022-08-02T07:37:07.328Z,50.77
2022-08-02T07:43:13.359Z,51.06
2022-08-02T07:49:18.746Z,49.62
2022-08-02T07:55:23.821Z,50.41
2022-08-02T08:01:27.527Z,49.45
2022-08-02T08:07:31.246Z,50.13
2022-08-02T08:13:36.297Z,49.82
2022-08-02T08:19:52.140Z,49.48
2022-08-02T08:25:56.302Z,49.09
2022-08-02T08:32:01.638Z,48.89
2022-08-02T08:38:07.949Z,48.96
2022-08-02T08:44:11.647Z,49.62
2022-08-02T08:50:24.957Z,49.69
2022-08-02T08:56:31.606Z,48.93
2022-08-02T09:02:36.115Z,49.79
2022-08-02T09:08:41.113Z,49.40
2022-08-02T09:14:44.844Z,49.97
2022-08-02T09:20:57.558Z,49.82
2022-08-02T09:27:12.636Z,50.20
2022-08-02T09:33:17.998Z,50.13
2022-08-02T09:39:22.965Z,50.48
2022-08-02T09:45:34.630Z,50.30
2022-08-02T09:51:40.060Z,49.99
2022-08-02T09:57:44.001Z,50.32
2022-08-02T10:04:00.842Z,49.75
2022-08-02T10:10:05.653Z,50.12
2022-08-02T10:16:10.281Z,49.75
2022-08-02T10:22:19.888Z,49.46
2022-08-02T10:28:30.966Z,49.36
2022-08-02T10:34:37.851Z,49.60
2022-08-02T10:40:48.323Z,49.38
2022-08-02T10:46:52.189Z,48.69
2022-08-02T10:53:21.314Z,48.63
2022-08-02T10:59:27.990Z,48.94
2022-08-02T11:05:43.165Z,48.92
2022-08-02T11:12:02.879Z,49.34
2022-08-02T11:18:07.891Z,49.63
2022-08-02T11:24:29.522Z,50.03
2022-08-02T11:30:33.121Z,50.11
2022-08-02T11:36:47.305Z,50.41
2022-08-02T11:42:50.937Z,51.25
2022-08-02T11:48:54.612Z,51.05
2022-08-02T11:54:59.590Z,51.34
2022-08-02T12:01:04.345Z,51.44
2022-08-02T12:07:08.574Z,51.30
2022-08-02T12:13:13.633Z,51.08
2022-08-02T12:19:20.298Z,51.08
2022-08-02T12:25:34.833Z,51.13
2022-08-02T12:31:56.743Z,50.66
2022-08-02T12:38:10.934Z,50.10
2022-08-02T12:44:19.661Z,50.06
2022-08-02T12:50:27.495Z,49.56
2022-08-02T12:56:34.395Z,49.24
2022-08-02T13:02:37.902Z,49.10
2022-08-02T13:08:42.965Z,48.32
2022-08-02T13:14:46.501Z,48.33
2022-08-02T13:20:50.185Z,47.77
2022-08-02T13:26:55.103Z,48.13
2022-08-02T13:33:01.173Z,48.01
2022-08-02T13:39:06.767Z,47.93
2022-08-02T13:45:14.113Z,47.28
2022-08-02T13:51:18.129Z,47.68
2022-08-02T13:57:21.714Z,47.70
2022-08-02T14:03:26.725Z,47.76
2022-08-02T14:09:50.252Z,47.65
2022-08-02T14:15:53.862Z,47.37
2022-08-02T14:22:11.275Z,47.86
2022-08-02T14:28:15.871Z,48.01
2022-08-02T14:34:19.180Z,46.90
2022-08-02T14:40:30.803Z,46.68
2022-08-02T14:46:37.167Z,47.32
2022-08-02T14:52:40.722Z,47.39
2022-08-02T14:58:45.687Z,47.58
2022-08-02T15:04:49.257Z,47.44
2022-08-02T15:10:52.660Z,47.79
2022-08-02T15:16:59.002Z,47.58
2022-08-02T15:23:03.539Z,47.85
2022-08-02T15:29:07.102Z,48.04
2022-08-02T15:35:12.015Z,47.90
2022-08-02T15:41:15.746Z,48.05
2022-08-02T15:47:19.285Z,47.81
2022-08-02T15:53:24.211Z,48.25
2022-08-02T15:59:28.065Z,48.08
2022-08-02T16:05:31.606Z,47.59
2022-08-02T16:11:36.729Z,47.64
2022-08-02T16:17:49.355Z,47.91
2022-08-02T16:24:01.058Z,47.82
2022-08-02T16:30:09.666Z,48.24
2022-08-02T16:36:14.098Z,48.59
2022-08-02T16:42:25.448Z,48.42
2022-08-02T16:48:30.932Z,49.32
2022-08-02T16:54:34.899Z,49.37
2022-08-02T17:00:46.622Z,49.22
2022-08-02T17:06:52.884Z,49.30
2022-08-02T17:12:57.026Z,49.84
2022-08-02T17:19:01.073Z,50.22
2022-08-02T17:25:07.051Z,50.02
2022-08-02T17:31:14.829Z,50.44
2022-08-02T17:37:18.545Z,50.83
2022-08-02T17:43:25.936Z,50.97
2022-08-02T17:49:33.548Z,51.62
2022-08-02T17:55:42.296Z,51.62
2022-08-02T18:01:53.269Z,51.57
2022-08-02T18:08:01.079Z,51.33
2022-08-02T18:14:04.881Z,51.87
2022-08-02T18:20:12.556Z,52.00
2022-08-02T18:26:17.721Z,51.82
2022-08-02T18:33:55.240Z,52.97
2022-08-02T18:38:49.956Z,52.90
2022-08-02T18:44:55.896Z,52.93
2022-08-02T18:51:00.611Z,53.11
2022-08-02T18:58:04.373Z,53.35
2022-08-02T19:03:29.689Z,53.53
2022-08-02T19:09:40.766Z,53.92
2022-08-02T19:15:46.233Z,53.93
2022-08-02T19:22:18.198Z,54.11
2022-08-02T19:28:15.073Z,54.27
2022-08-02T19:34:20.067Z,54.47
2022-08-02T19:40:29.703Z,54.49
2022-08-02T19:46:35.999Z,54.26
2022-08-02T19:52:42.180Z,54.42
2022-08-02T19:58:48.274Z,54.75
2022-08-02T20:05:00.859Z,54.92
2022-08-02T20:11:14.951Z,54.91
2022-08-02T20:17:20.670Z,54.49
2022-08-02T20:23:34.027Z,55.28
2022-08-02T20:29:45.128Z,54.95
2022-08-02T20:35:54.736Z,55.23
2022-08-02T20:42:02.214Z,55.35
2022-08-02T20:48:11.157Z,55.72
2022-08-02T20:54:16.420Z,56.28
2022-08-02T21:00:25.011Z,56.37
2022-08-02T21:06:30.999Z,56.66
2022-08-02T21:12:36.301Z,56.98
2022-08-02T21:18:45.150Z,57.03
2022-08-02T21:24:50.160Z,57.47
2022-08-02T21:30:55.218Z,57.01
2022-08-02T21:36:58.740Z,100.00
2022-08-02T21:43:03.786Z,100.00
2022-08-02T21:49:13.093Z,100.00
2022-08-02T21:55:16.621Z,100.00
2022-08-02T22:01:31.629Z,100.00
2022-08-02T22:07:38.171Z,100.00
2022-08-02T22:13:47.664Z,56.83
2022-08-02T22:19:53.994Z,57.25
2022-08-02T22:25:58.220Z,56.78
2022-08-02T22:32:02.759Z,56.96
2022-08-02T22:38:14.756Z,56.44
2022-08-02T22:44:21.886Z,56.15
2022-08-02T22:50:27.607Z,55.96
2022-08-02T22:56:32.586Z,55.84
2022-08-02T23:02:36.246Z,55.54
2022-08-02T23:08:41.857Z,55.62
2022-08-02T23:14:47.255Z,55.38
2022-08-02T23:20:50.750Z,55.67
2022-08-02T23:26:54.257Z,56.07
2022-08-02T23:32:59.181Z,55.46
2022-08-02T23:39:03.193Z,55.59
2022-08-02T23:45:07.442Z,55.70
2022-08-02T23:51:21.990Z,55.83
2022-08-02T23:57:25.899Z,55.29
